sensor_id;sensor_type;location;lat;lon;timestamp;P1;durP1;ratioP1;P2;durP2;ratioP2
24635;SDS011;12772;49.794;10.024;2022-12-10T00:03:24;14.57;;;10.07;;
24635;SDS011;12772;49.794;10.024;2022-12-10T00:07:25;13.02;;;9.70;;
24635;SDS011;12772;49.794;10.024;2022-12-10T00:11:28;11.25;;;9.25;;
24635;SDS011;12772;49.794;10.024;2022-12-10T00:15:30;9.93;;;8.63;;
24635;SDS011;12772;49.794;10.024;2022-12-10T00:19:32;11.60;;;9.48;;
24635;SDS011;12772;49.794;10.024;2022-12-10T00:23:34;9.38;;;8.43;;
24635;SDS011;12772;49.794;10.024;2022-12-10T00:27:37;9.93;;;8.93;;
24635;SDS011;12772;49.794;10.024;2022-12-10T00:31:39;10.18;;;8.68;;
24635;SDS011;12772;49.794;10.024;2022-12-10T00:35:41;11.55;;;9.70;;
24635;SDS011;12772;49.794;10.024;2022-12-10T00:39:43;12.45;;;10.27;;
24635;SDS011;12772;49.794;10.024;2022-12-10T00:43:45;11.25;;;9.65;;
24635;SDS011;12772;49.794;10.024;2022-12-10T00:47:48;11.73;;;9.70;;
24635;SDS011;12772;49.794;10.024;2022-12-10T00:51:50;11.13;;;9.98;;
24635;SDS011;12772;49.794;10.024;2022-12-10T00:55:52;9.23;;;8.20;;
24635;SDS011;12772;49.794;10.024;2022-12-10T00:59:55;10.13;;;8.80;;
24635;SDS011;12772;49.794;10.024;2022-12-10T01:03:58;10.55;;;8.35;;
24635;SDS011;12772;49.794;10.024;2022-12-10T01:08:02;9.27;;;8.27;;
24635;SDS011;12772;49.794;10.024;2022-12-10T01:12:04;9.40;;;8.40;;
24635;SDS011;12772;49.794;10.024;2022-12-10T01:16:07;11.15;;;8.57;;
24635;SDS011;12772;49.794;10.024;2022-12-10T01:20:10;14.07;;;10.48;;
24635;SDS011;12772;49.794;10.024;2022-12-10T01:24:13;11.15;;;8.32;;
24635;SDS011;12772;49.794;10.024;2022-12-10T01:28:15;9.65;;;8.65;;
24635;SDS011;12772;49.794;10.024;2022-12-10T01:32:17;9.85;;;8.00;;
24635;SDS011;12772;49.794;10.024;2022-12-10T01:36:23;10.45;;;8.82;;
24635;SDS011;12772;49.794;10.024;2022-12-10T01:40:26;11.07;;;8.73;;
24635;SDS011;12772;49.794;10.024;2022-12-10T01:48:31;9.27;;;8.30;;
24635;SDS011;12772;49.794;10.024;2022-12-10T01:52:33;9.10;;;8.20;;
24635;SDS011;12772;49.794;10.024;2022-12-10T01:56:37;10.77;;;9.27;;
24635;SDS011;12772;49.794;10.024;2022-12-10T02:00:49;10.98;;;9.77;;
24635;SDS011;12772;49.794;10.024;2022-12-10T02:13:52;9.45;;;8.05;;
24635;SDS011;12772;49.794;10.024;2022-12-10T02:18:05;10.15;;;9.02;;
24635;SDS011;12772;49.794;10.024;2022-12-10T02:22:11;9.80;;;8.45;;
24635;SDS011;12772;49.794;10.024;2022-12-10T02:30:29;11.73;;;9.13;;
24635;SDS011;12772;49.794;10.024;2022-12-10T02:34:35;9.77;;;8.20;;
24635;SDS011;12772;49.794;10.024;2022-12-10T02:38:41;10.65;;;9.45;;
24635;SDS011;12772;49.794;10.024;2022-12-10T02:42:44;9.88;;;8.55;;
24635;SDS011;12772;49.794;10.024;2022-12-10T02:46:50;9.52;;;8.43;;
24635;SDS011;12772;49.794;10.024;2022-12-10T02:50:55;9.68;;;8.55;;
24635;SDS011;12772;49.794;10.024;2022-12-10T02:54:57;13.38;;;9.73;;
24635;SDS011;12772;49.794;10.024;2022-12-10T03:07:42;10.68;;;8.32;;
24635;SDS011;12772;49.794;10.024;2022-12-10T03:11:51;10.57;;;8.82;;
24635;SDS011;12772;49.794;10.024;2022-12-10T03:16:07;9.15;;;7.88;;
24635;SDS011;12772;49.794;10.024;2022-12-10T03:20:12;9.35;;;8.27;;
24635;SDS011;12772;49.794;10.024;2022-12-10T03:24:17;9.25;;;8.18;;
24635;SDS011;12772;49.794;10.024;2022-12-10T03:28:19;9.48;;;8.30;;
24635;SDS011;12772;49.794;10.024;2022-12-10T03:32:25;11.45;;;9.13;;
24635;SDS011;12772;49.794;10.024;2022-12-10T03:36:29;10.38;;;8.98;;
24635;SDS011;12772;49.794;10.024;2022-12-10T03:40:32;12.32;;;9.38;;
24635;SDS011;12772;49.794;10.024;2022-12-10T03:44:36;12.55;;;9.75;;
24635;SDS011;12772;49.794;10.024;2022-12-10T03:48:40;12.88;;;10.38;;
24635;SDS011;12772;49.794;10.024;2022-12-10T03:52:42;11.87;;;9.20;;
24635;SDS011;12772;49.794;10.024;2022-12-10T03:56:44;12.68;;;9.93;;
24635;SDS011;12772;49.794;10.024;2022-12-10T04:00:46;12.00;;;9.82;;
24635;SDS011;12772;49.794;10.024;2022-12-10T04:04:48;13.68;;;9.93;;
24635;SDS011;12772;49.794;10.024;2022-12-10T04:08:51;12.00;;;9.87;;
24635;SDS011;12772;49.794;10.024;2022-12-10T04:12:54;16.73;;;10.70;;
24635;SDS011;12772;49.794;10.024;2022-12-10T04:17:10;12.02;;;9.65;;
24635;SDS011;12772;49.794;10.024;2022-12-10T04:21:12;12.20;;;9.00;;
24635;SDS011;12772;49.794;10.024;2022-12-10T04:25:32;12.45;;;9.75;;
24635;SDS011;12772;49.794;10.024;2022-12-10T04:29:52;11.60;;;9.43;;
24635;SDS011;12772;49.794;10.024;2022-12-10T04:33:54;12.30;;;9.20;;
24635;SDS011;12772;49.794;10.024;2022-12-10T04:37:57;11.53;;;9.77;;
24635;SDS011;12772;49.794;10.024;2022-12-10T04:42:00;12.15;;;8.80;;
24635;SDS011;12772;49.794;10.024;2022-12-10T04:46:02;10.87;;;9.13;;
24635;SDS011;12772;49.794;10.024;2022-12-10T04:50:04;12.43;;;10.00;;
24635;SDS011;12772;49.794;10.024;2022-12-10T04:54:07;14.32;;;9.15;;
24635;SDS011;12772;49.794;10.024;2022-12-10T04:58:10;12.05;;;9.63;;
24635;SDS011;12772;49.794;10.024;2022-12-10T05:02:12;12.27;;;9.32;;
24635;SDS011;12772;49.794;10.024;2022-12-10T05:06:14;12.00;;;9.25;;
24635;SDS011;12772;49.794;10.024;2022-12-10T05:10:18;12.10;;;9.33;;
24635;SDS011;12772;49.794;10.024;2022-12-10T05:14:20;12.07;;;9.77;;
24635;SDS011;12772;49.794;10.024;2022-12-10T05:18:22;10.43;;;8.65;;
24635;SDS011;12772;49.794;10.024;2022-12-10T05:22:24;11.63;;;9.13;;
24635;SDS011;12772;49.794;10.024;2022-12-10T05:26:43;12.67;;;9.63;;
24635;SDS011;12772;49.794;10.024;2022-12-10T05:30:46;11.03;;;9.37;;
24635;SDS011;12772;49.794;10.024;2022-12-10T05:34:48;12.70;;;9.63;;
24635;SDS011;12772;49.794;10.024;2022-12-10T05:38:50;10.93;;;9.23;;
24635;SDS011;12772;49.794;10.024;2022-12-10T05:42:52;11.93;;;9.60;;
24635;SDS011;12772;49.794;10.024;2022-12-10T05:46:55;12.13;;;10.00;;
24635;SDS011;12772;49.794;10.024;2022-12-10T05:50:57;12.53;;;9.97;;
24635;SDS011;12772;49.794;10.024;2022-12-10T05:54:59;11.20;;;9.83;;
24635;SDS011;12772;49.794;10.024;2022-12-10T05:59:01;12.33;;;9.67;;
24635;SDS011;12772;49.794;10.024;2022-12-10T06:03:05;14.07;;;10.70;;
24635;SDS011;12772;49.794;10.024;2022-12-10T06:07:07;14.40;;;11.63;;
24635;SDS011;12772;49.794;10.024;2022-12-10T06:11:10;14.40;;;10.03;;
24635;SDS011;12772;49.794;10.024;2022-12-10T06:15:12;11.83;;;9.67;;
24635;SDS011;12772;49.794;10.024;2022-12-10T06:19:14;14.07;;;10.73;;
24635;SDS011;12772;49.794;10.024;2022-12-10T06:23:16;10.73;;;8.68;;
24635;SDS011;12772;49.794;10.024;2022-12-10T06:27:18;12.60;;;9.02;;
24635;SDS011;12772;49.794;10.024;2022-12-10T06:31:20;12.73;;;9.57;;
24635;SDS011;12772;49.794;10.024;2022-12-10T06:35:23;10.40;;;8.95;;
24635;SDS011;12772;49.794;10.024;2022-12-10T06:39:25;11.55;;;9.73;;
24635;SDS011;12772;49.794;10.024;2022-12-10T06:43:30;11.82;;;9.52;;
24635;SDS011;12772;49.794;10.024;2022-12-10T06:47:32;10.83;;;9.10;;
24635;SDS011;12772;49.794;10.024;2022-12-10T06:51:34;12.30;;;9.67;;
24635;SDS011;12772;49.794;10.024;2022-12-10T06:55:38;12.38;;;9.80;;
24635;SDS011;12772;49.794;10.024;2022-12-10T06:59:40;9.73;;;8.70;;
24635;SDS011;12772;49.794;10.024;2022-12-10T07:03:42;10.23;;;8.43;;
24635;SDS011;12772;49.794;10.024;2022-12-10T07:07:45;10.43;;;9.32;;
24635;SDS011;12772;49.794;10.024;2022-12-10T07:11:47;12.75;;;9.93;;
24635;SDS011;12772;49.794;10.024;2022-12-10T07:15:49;15.20;;;11.90;;
24635;SDS011;12772;49.794;10.024;2022-12-10T07:19:51;17.15;;;13.63;;
24635;SDS011;12772;49.794;10.024;2022-12-10T07:23:53;15.02;;;12.88;;
24635;SDS011;12772;49.794;10.024;2022-12-10T07:27:58;14.48;;;12.05;;
24635;SDS011;12772;49.794;10.024;2022-12-10T07:32:00;12.70;;;10.43;;
24635;SDS011;12772;49.794;10.024;2022-12-10T07:36:03;12.73;;;11.20;;
24635;SDS011;12772;49.794;10.024;2022-12-10T07:40:10;13.05;;;11.18;;
24635;SDS011;12772;49.794;10.024;2022-12-10T07:44:12;13.38;;;11.77;;
24635;SDS011;12772;49.794;10.024;2022-12-10T07:48:14;13.95;;;10.43;;
24635;SDS011;12772;49.794;10.024;2022-12-10T07:52:16;12.52;;;11.18;;
24635;SDS011;12772;49.794;10.024;2022-12-10T07:56:18;16.58;;;13.60;;
24635;SDS011;12772;49.794;10.024;2022-12-10T08:00:21;20.05;;;15.75;;
24635;SDS011;12772;49.794;10.024;2022-12-10T08:04:23;14.80;;;12.48;;
24635;SDS011;12772;49.794;10.024;2022-12-10T08:08:28;13.30;;;11.57;;
24635;SDS011;12772;49.794;10.024;2022-12-10T08:12:31;18.13;;;12.75;;
24635;SDS011;12772;49.794;10.024;2022-12-10T08:16:33;16.48;;;12.85;;
24635;SDS011;12772;49.794;10.024;2022-12-10T08:20:35;15.90;;;12.95;;
24635;SDS011;12772;49.794;10.024;2022-12-10T08:24:37;17.40;;;13.45;;
24635;SDS011;12772;49.794;10.024;2022-12-10T08:28:39;18.85;;;14.20;;
24635;SDS011;12772;49.794;10.024;2022-12-10T08:32:41;15.00;;;12.70;;
24635;SDS011;12772;49.794;10.024;2022-12-10T08:36:43;13.95;;;11.60;;
24635;SDS011;12772;49.794;10.024;2022-12-10T08:40:46;15.93;;;13.35;;
24635;SDS011;12772;49.794;10.024;2022-12-10T08:44:48;14.95;;;12.38;;
24635;SDS011;12772;49.794;10.024;2022-12-10T08:48:51;16.25;;;12.88;;
24635;SDS011;12772;49.794;10.024;2022-12-10T08:52:53;20.38;;;15.00;;
24635;SDS011;12772;49.794;10.024;2022-12-10T08:56:55;16.35;;;13.55;;
24635;SDS011;12772;49.794;10.024;2022-12-10T09:00:57;14.93;;;13.07;;
24635;SDS011;12772;49.794;10.024;2022-12-10T09:04:59;18.30;;;13.18;;
24635;SDS011;12772;49.794;10.024;2022-12-10T09:09:01;17.08;;;12.55;;
24635;SDS011;12772;49.794;10.024;2022-12-10T09:13:04;18.45;;;13.88;;
24635;SDS011;12772;49.794;10.024;2022-12-10T09:17:06;14.70;;;12.43;;
24635;SDS011;12772;49.794;10.024;2022-12-10T09:21:10;16.13;;;12.45;;
24635;SDS011;12772;49.794;10.024;2022-12-10T09:25:14;17.50;;;13.17;;
24635;SDS011;12772;49.794;10.024;2022-12-10T09:29:17;18.55;;;12.88;;
24635;SDS011;12772;49.794;10.024;2022-12-10T09:33:19;16.27;;;12.77;;
24635;SDS011;12772;49.794;10.024;2022-12-10T09:37:21;18.08;;;12.50;;
24635;SDS011;12772;49.794;10.024;2022-12-10T09:45:46;16.77;;;11.73;;
24635;SDS011;12772;49.794;10.024;2022-12-10T09:54:30;17.98;;;12.88;;
24635;SDS011;12772;49.794;10.024;2022-12-10T09:58:35;15.88;;;13.27;;
24635;SDS011;12772;49.794;10.024;2022-12-10T10:02:38;16.58;;;12.48;;
24635;SDS011;12772;49.794;10.024;2022-12-10T10:06:41;14.80;;;12.38;;
24635;SDS011;12772;49.794;10.024;2022-12-10T10:10:44;16.40;;;13.80;;
24635;SDS011;12772;49.794;10.024;2022-12-10T10:14:47;20.15;;;14.38;;
24635;SDS011;12772;49.794;10.024;2022-12-10T10:18:54;17.80;;;14.63;;
24635;SDS011;12772;49.794;10.024;2022-12-10T10:23:04;18.45;;;14.40;;
24635;SDS011;12772;49.794;10.024;2022-12-10T10:27:11;16.95;;;13.48;;
24635;SDS011;12772;49.794;10.024;2022-12-10T10:31:20;17.20;;;14.55;;
24635;SDS011;12772;49.794;10.024;2022-12-10T10:35:29;17.90;;;13.48;;
24635;SDS011;12772;49.794;10.024;2022-12-10T10:39:33;16.75;;;13.93;;
24635;SDS011;12772;49.794;10.024;2022-12-10T10:43:40;15.88;;;13.02;;
24635;SDS011;12772;49.794;10.024;2022-12-10T10:47:45;15.00;;;12.85;;
24635;SDS011;12772;49.794;10.024;2022-12-10T10:51:47;22.63;;;13.93;;
24635;SDS011;12772;49.794;10.024;2022-12-10T10:55:49;16.85;;;13.27;;
24635;SDS011;12772;49.794;10.024;2022-12-10T10:59:54;15.95;;;12.93;;
24635;SDS011;12772;49.794;10.024;2022-12-10T11:04:01;17.90;;;13.70;;
24635;SDS011;12772;49.794;10.024;2022-12-10T11:08:04;16.52;;;13.95;;
24635;SDS011;12772;49.794;10.024;2022-12-10T11:12:29;15.02;;;13.10;;
24635;SDS011;12772;49.794;10.024;2022-12-10T11:16:31;18.38;;;13.85;;
24635;SDS011;12772;49.794;10.024;2022-12-10T11:20:34;14.68;;;11.88;;
24635;SDS011;12772;49.794;10.024;2022-12-10T11:24:36;21.95;;;13.70;;
24635;SDS011;12772;49.794;10.024;2022-12-10T11:28:47;19.52;;;14.25;;
24635;SDS011;12772;49.794;10.024;2022-12-10T11:37:28;17.95;;;14.02;;
24635;SDS011;12772;49.794;10.024;2022-12-10T11:41:46;17.55;;;13.90;;
24635;SDS011;12772;49.794;10.024;2022-12-10T11:50:13;17.95;;;13.48;;
24635;SDS011;12772;49.794;10.024;2022-12-10T11:54:45;17.35;;;12.65;;
24635;SDS011;12772;49.794;10.024;2022-12-10T11:59:11;14.52;;;12.23;;
24635;SDS011;12772;49.794;10.024;2022-12-10T12:08:16;15.63;;;12.13;;
24635;SDS011;12772;49.794;10.024;2022-12-10T12:16:33;16.20;;;13.05;;
24635;SDS011;12772;49.794;10.024;2022-12-10T12:20:58;16.90;;;12.80;;
24635;SDS011;12772;49.794;10.024;2022-12-10T12:25:15;15.60;;;11.90;;
24635;SDS011;12772;49.794;10.024;2022-12-10T12:38:01;15.60;;;13.02;;
24635;SDS011;12772;49.794;10.024;2022-12-10T12:46:38;14.27;;;11.73;;
24635;SDS011;12772;49.794;10.024;2022-12-10T12:50:45;18.70;;;15.50;;
24635;SDS011;12772;49.794;10.024;2022-12-10T12:54:56;17.27;;;13.23;;
24635;SDS011;12772;49.794;10.024;2022-12-10T12:59:19;18.23;;;14.07;;
24635;SDS011;12772;49.794;10.024;2022-12-10T13:03:38;18.48;;;13.38;;
24635;SDS011;12772;49.794;10.024;2022-12-10T13:07:42;18.67;;;13.10;;
24635;SDS011;12772;49.794;10.024;2022-12-10T13:11:45;20.30;;;13.30;;
24635;SDS011;12772;49.794;10.024;2022-12-10T13:29:26;16.38;;;12.60;;
24635;SDS011;12772;49.794;10.024;2022-12-10T13:33:28;16.55;;;13.82;;
24635;SDS011;12772;49.794;10.024;2022-12-10T13:38:05;16.75;;;13.40;;
24635;SDS011;12772;49.794;10.024;2022-12-10T13:42:25;16.15;;;12.27;;
24635;SDS011;12772;49.794;10.024;2022-12-10T13:55:19;15.10;;;11.52;;
24635;SDS011;12772;49.794;10.024;2022-12-10T14:07:49;13.13;;;11.00;;
24635;SDS011;12772;49.794;10.024;2022-12-10T14:11:54;12.80;;;11.20;;
24635;SDS011;12772;49.794;10.024;2022-12-10T14:16:00;14.68;;;11.40;;
24635;SDS011;12772;49.794;10.024;2022-12-10T14:20:04;13.50;;;11.45;;
24635;SDS011;12772;49.794;10.024;2022-12-10T14:24:25;16.40;;;12.98;;
24635;SDS011;12772;49.794;10.024;2022-12-10T14:28:49;15.85;;;12.43;;
24635;SDS011;12772;49.794;10.024;2022-12-10T14:32:57;15.20;;;12.18;;
24635;SDS011;12772;49.794;10.024;2022-12-10T14:37:01;16.45;;;12.45;;
24635;SDS011;12772;49.794;10.024;2022-12-10T14:41:06;17.33;;;12.52;;
24635;SDS011;12772;49.794;10.024;2022-12-10T14:45:11;16.50;;;13.18;;
24635;SDS011;12772;49.794;10.024;2022-12-10T14:49:18;15.10;;;12.25;;
24635;SDS011;12772;49.794;10.024;2022-12-10T14:53:23;14.98;;;11.90;;
24635;SDS011;12772;49.794;10.024;2022-12-10T14:57:31;15.07;;;12.13;;
24635;SDS011;12772;49.794;10.024;2022-12-10T15:01:38;15.52;;;12.80;;
24635;SDS011;12772;49.794;10.024;2022-12-10T15:05:42;13.65;;;10.77;;
24635;SDS011;12772;49.794;10.024;2022-12-10T15:09:54;11.45;;;9.95;;
24635;SDS011;12772;49.794;10.024;2022-12-10T15:13:58;15.70;;;12.10;;
24635;SDS011;12772;49.794;10.024;2022-12-10T15:22:19;13.70;;;11.15;;
24635;SDS011;12772;49.794;10.024;2022-12-10T15:26:24;14.43;;;11.45;;
24635;SDS011;12772;49.794;10.024;2022-12-10T15:30:34;15.05;;;11.48;;
24635;SDS011;12772;49.794;10.024;2022-12-10T15:34:43;15.48;;;12.63;;
24635;SDS011;12772;49.794;10.024;2022-12-10T15:38:50;17.02;;;12.52;;
24635;SDS011;12772;49.794;10.024;2022-12-10T15:42:55;15.65;;;11.93;;
24635;SDS011;12772;49.794;10.024;2022-12-10T15:47:16;15.35;;;12.40;;
24635;SDS011;12772;49.794;10.024;2022-12-10T15:51:21;16.13;;;12.20;;
24635;SDS011;12772;49.794;10.024;2022-12-10T15:55:23;16.00;;;12.50;;
24635;SDS011;12772;49.794;10.024;2022-12-10T15:59:25;17.60;;;11.82;;
24635;SDS011;12772;49.794;10.024;2022-12-10T16:03:27;18.20;;;13.82;;
24635;SDS011;12772;49.794;10.024;2022-12-10T16:07:30;12.40;;;10.07;;
24635;SDS011;12772;49.794;10.024;2022-12-10T16:11:33;9.38;;;8.38;;
24635;SDS011;12772;49.794;10.024;2022-12-10T16:15:37;11.48;;;9.27;;
24635;SDS011;12772;49.794;10.024;2022-12-10T16:19:45;10.98;;;9.48;;
24635;SDS011;12772;49.794;10.024;2022-12-10T16:23:48;9.73;;;8.73;;
24635;SDS011;12772;49.794;10.024;2022-12-10T16:27:50;20.50;;;14.80;;
24635;SDS011;12772;49.794;10.024;2022-12-10T16:31:52;16.45;;;12.80;;
24635;SDS011;12772;49.794;10.024;2022-12-10T16:35:55;16.40;;;13.00;;
24635;SDS011;12772;49.794;10.024;2022-12-10T16:39:57;17.63;;;13.63;;
24635;SDS011;12772;49.794;10.024;2022-12-10T16:43:59;14.30;;;11.43;;
24635;SDS011;12772;49.794;10.024;2022-12-10T16:48:02;12.48;;;10.65;;
24635;SDS011;12772;49.794;10.024;2022-12-10T16:52:04;13.82;;;10.63;;
24635;SDS011;12772;49.794;10.024;2022-12-10T16:56:06;12.30;;;10.27;;
24635;SDS011;12772;49.794;10.024;2022-12-10T17:00:12;12.07;;;10.20;;
24635;SDS011;12772;49.794;10.024;2022-12-10T17:04:16;12.10;;;10.00;;
24635;SDS011;12772;49.794;10.024;2022-12-10T17:08:18;12.88;;;9.23;;
24635;SDS011;12772;49.794;10.024;2022-12-10T17:12:21;17.90;;;13.23;;
24635;SDS011;12772;49.794;10.024;2022-12-10T17:16:23;19.60;;;14.70;;
24635;SDS011;12772;49.794;10.024;2022-12-10T17:20:25;25.70;;;18.45;;
24635;SDS011;12772;49.794;10.024;2022-12-10T17:24:28;24.65;;;16.70;;
24635;SDS011;12772;49.794;10.024;2022-12-10T17:28:31;25.95;;;19.50;;
24635;SDS011;12772;49.794;10.024;2022-12-10T17:32:33;17.63;;;13.88;;
24635;SDS011;12772;49.794;10.024;2022-12-10T17:36:35;16.13;;;12.65;;
24635;SDS011;12772;49.794;10.024;2022-12-10T17:40:37;17.42;;;13.43;;
24635;SDS011;12772;49.794;10.024;2022-12-10T17:44:39;18.83;;;13.88;;
24635;SDS011;12772;49.794;10.024;2022-12-10T17:48:41;19.90;;;14.77;;
24635;SDS011;12772;49.794;10.024;2022-12-10T17:52:43;15.23;;;12.05;;
24635;SDS011;12772;49.794;10.024;2022-12-10T17:56:45;13.23;;;11.00;;
24635;SDS011;12772;49.794;10.024;2022-12-10T18:00:47;11.48;;;9.18;;
24635;SDS011;12772;49.794;10.024;2022-12-10T18:04:50;11.27;;;9.63;;
24635;SDS011;12772;49.794;10.024;2022-12-10T18:08:53;11.23;;;9.65;;
24635;SDS011;12772;49.794;10.024;2022-12-10T18:12:57;15.57;;;12.20;;
24635;SDS011;12772;49.794;10.024;2022-12-10T18:16:59;14.07;;;11.73;;
24635;SDS011;12772;49.794;10.024;2022-12-10T18:21:01;15.63;;;11.50;;
24635;SDS011;12772;49.794;10.024;2022-12-10T18:25:04;26.75;;;15.68;;
24635;SDS011;12772;49.794;10.024;2022-12-10T18:29:06;27.42;;;17.23;;
24635;SDS011;12772;49.794;10.024;2022-12-10T18:33:14;24.05;;;16.08;;
24635;SDS011;12772;49.794;10.024;2022-12-10T18:37:16;26.88;;;17.58;;
24635;SDS011;12772;49.794;10.024;2022-12-10T18:41:19;21.88;;;15.15;;
24635;SDS011;12772;49.794;10.024;2022-12-10T18:45:21;17.13;;;13.18;;
24635;SDS011;12772;49.794;10.024;2022-12-10T18:49:23;14.50;;;11.88;;
24635;SDS011;12772;49.794;10.024;2022-12-10T18:53:27;14.82;;;11.02;;
24635;SDS011;12772;49.794;10.024;2022-12-10T18:57:29;14.13;;;10.90;;
24635;SDS011;12772;49.794;10.024;2022-12-10T19:01:32;12.48;;;10.85;;
24635;SDS011;12772;49.794;10.024;2022-12-10T19:05:34;14.98;;;12.13;;
24635;SDS011;12772;49.794;10.024;2022-12-10T19:09:36;16.20;;;12.27;;
24635;SDS011;12772;49.794;10.024;2022-12-10T19:13:39;17.80;;;13.75;;
24635;SDS011;12772;49.794;10.024;2022-12-10T19:17:42;15.50;;;11.85;;
24635;SDS011;12772;49.794;10.024;2022-12-10T19:21:44;14.60;;;12.38;;
24635;SDS011;12772;49.794;10.024;2022-12-10T19:25:47;17.27;;;13.85;;
24635;SDS011;12772;49.794;10.024;2022-12-10T19:29:49;18.35;;;14.23;;
24635;SDS011;12772;49.794;10.024;2022-12-10T19:33:51;16.00;;;12.02;;
24635;SDS011;12772;49.794;10.024;2022-12-10T19:37:54;17.10;;;12.25;;
24635;SDS011;12772;49.794;10.024;2022-12-10T19:41:56;13.75;;;11.68;;
24635;SDS011;12772;49.794;10.024;2022-12-10T19:45:58;16.83;;;13.20;;
24635;SDS011;12772;49.794;10.024;2022-12-10T19:50:00;15.37;;;12.63;;
24635;SDS011;12772;49.794;10.024;2022-12-10T19:54:02;13.98;;;11.15;;
24635;SDS011;12772;49.794;10.024;2022-12-10T19:58:04;16.27;;;12.38;;
24635;SDS011;12772;49.794;10.024;2022-12-10T20:02:07;15.45;;;12.50;;
24635;SDS011;12772;49.794;10.024;2022-12-10T20:10:28;15.68;;;12.32;;
24635;SDS011;12772;49.794;10.024;2022-12-10T20:14:30;14.50;;;12.17;;
24635;SDS011;12772;49.794;10.024;2022-12-10T20:18:32;15.75;;;12.63;;
24635;SDS011;12772;49.794;10.024;2022-12-10T20:22:34;17.23;;;14.00;;
24635;SDS011;12772;49.794;10.024;2022-12-10T20:26:37;16.70;;;12.75;;
24635;SDS011;12772;49.794;10.024;2022-12-10T20:30:41;16.33;;;12.48;;
24635;SDS011;12772;49.794;10.024;2022-12-10T20:34:43;14.35;;;11.75;;
24635;SDS011;12772;49.794;10.024;2022-12-10T20:38:45;16.73;;;13.57;;
24635;SDS011;12772;49.794;10.024;2022-12-10T20:42:47;19.30;;;14.52;;
24635;SDS011;12772;49.794;10.024;2022-12-10T20:46:50;16.23;;;12.43;;
24635;SDS011;12772;49.794;10.024;2022-12-10T20:50:53;18.52;;;13.45;;
24635;SDS011;12772;49.794;10.024;2022-12-10T20:54:55;14.40;;;12.23;;
24635;SDS011;12772;49.794;10.024;2022-12-10T20:58:57;16.10;;;12.65;;
24635;SDS011;12772;49.794;10.024;2022-12-10T21:03:00;19.27;;;15.57;;
24635;SDS011;12772;49.794;10.024;2022-12-10T21:07:02;21.15;;;15.35;;
24635;SDS011;12772;49.794;10.024;2022-12-10T21:11:04;18.98;;;15.90;;
24635;SDS011;12772;49.794;10.024;2022-12-10T21:15:06;21.93;;;16.67;;
24635;SDS011;12772;49.794;10.024;2022-12-10T21:19:09;26.70;;;19.05;;
24635;SDS011;12772;49.794;10.024;2022-12-10T21:23:14;18.05;;;14.20;;
24635;SDS011;12772;49.794;10.024;2022-12-10T21:27:18;16.80;;;13.47;;
24635;SDS011;12772;49.794;10.024;2022-12-10T21:31:22;16.52;;;13.27;;
24635;SDS011;12772;49.794;10.024;2022-12-10T21:35:25;14.13;;;12.20;;
24635;SDS011;12772;49.794;10.024;2022-12-10T21:39:27;16.65;;;13.13;;
24635;SDS011;12772;49.794;10.024;2022-12-10T21:43:29;17.70;;;13.43;;
24635;SDS011;12772;49.794;10.024;2022-12-10T21:47:31;17.27;;;13.23;;
24635;SDS011;12772;49.794;10.024;2022-12-10T21:51:33;16.80;;;13.45;;
24635;SDS011;12772;49.794;10.024;2022-12-10T21:55:37;18.57;;;14.80;;
24635;SDS011;12772;49.794;10.024;2022-12-10T21:59:42;15.05;;;12.25;;
24635;SDS011;12772;49.794;10.024;2022-12-10T22:03:44;16.80;;;13.18;;
24635;SDS011;12772;49.794;10.024;2022-12-10T22:07:46;15.07;;;12.93;;
24635;SDS011;12772;49.794;10.024;2022-12-10T22:11:48;14.02;;;11.85;;
24635;SDS011;12772;49.794;10.024;2022-12-10T22:15:50;16.38;;;12.90;;
24635;SDS011;12772;49.794;10.024;2022-12-10T22:19:52;14.70;;;12.45;;
24635;SDS011;12772;49.794;10.024;2022-12-10T22:23:54;17.43;;;13.60;;
24635;SDS011;12772;49.794;10.024;2022-12-10T22:27:57;16.60;;;14.30;;
24635;SDS011;12772;49.794;10.024;2022-12-10T22:31:59;17.38;;;13.55;;
24635;SDS011;12772;49.794;10.024;2022-12-10T22:36:01;18.83;;;14.15;;
24635;SDS011;12772;49.794;10.024;2022-12-10T22:40:03;17.52;;;13.45;;
24635;SDS011;12772;49.794;10.024;2022-12-10T22:44:07;19.63;;;13.55;;
24635;SDS011;12772;49.794;10.024;2022-12-10T22:48:10;16.80;;;12.70;;
24635;SDS011;12772;49.794;10.024;2022-12-10T22:52:12;18.50;;;13.30;;
24635;SDS011;12772;49.794;10.024;2022-12-10T22:56:14;17.83;;;13.50;;
24635;SDS011;12772;49.794;10.024;2022-12-10T23:00:17;21.00;;;14.82;;
24635;SDS011;12772;49.794;10.024;2022-12-10T23:04:22;17.33;;;13.77;;
24635;SDS011;12772;49.794;10.024;2022-12-10T23:08:24;16.98;;;13.38;;
24635;SDS011;12772;49.794;10.024;2022-12-10T23:12:27;17.15;;;13.20;;
24635;SDS011;12772;49.794;10.024;2022-12-10T23:16:47;16.77;;;13.10;;
24635;SDS011;12772;49.794;10.024;2022-12-10T23:20:49;15.63;;;12.02;;
24635;SDS011;12772;49.794;10.024;2022-12-10T23:24:52;14.27;;;12.03;;
24635;SDS011;12772;49.794;10.024;2022-12-10T23:28:54;17.77;;;13.50;;
24635;SDS011;12772;49.794;10.024;2022-12-10T23:32:56;14.67;;;11.90;;
24635;SDS011;12772;49.794;10.024;2022-12-10T23:36:58;17.23;;;12.70;;
24635;SDS011;12772;49.794;10.024;2022-12-10T23:41:04;15.27;;;11.67;;
24635;SDS011;12772;49.794;10.024;2022-12-10T23:45:11;15.50;;;12.40;;
24635;SDS011;12772;49.794;10.024;2022-12-10T23:49:15;18.03;;;13.27;;
24635;SDS011;12772;49.794;10.024;2022-12-10T23:53:17;17.00;;;13.17;;
24635;SDS011;12772;49.794;10.024;2022-12-10T23:57:19;16.93;;;11.87;;
